Aviation Digital Data Service (ADDS)

Output produced by METARs form (2108 UTC 24 March 2019)
found at http://www.aviationweather.gov/metar/data/
 
ZBHH 242100Z 07003MPS CAVOK M07/M18 Q1013 NOSIG
TAF ZBHH 241510Z 2418/2518 03004MPS CAVOK TX15/2507Z TNM06/23Z
       
ZGGG 242100Z 36003MPS 8000 -SHRA SCT008 OVC023 14/12 Q1017 TEMPO SHRA
TAF ZGGG 241510Z 2418/2518 04003MPS 4000 -RA BR SCT005 OVC026 TX19/2507Z
TN13/2422Z 
     TEMPO 2418/2424 1500 TSRA BKN003 SCT026CB BKN030 
     TEMPO 2500/2506 1500 TSRA BKN003 SCT026CB BKN030
       
ZGSZ 242100Z 03003MPS 5000 BR SCT010 BKN026 17/16 Q1016 NOSIG
TAF ZGSZ 241502Z 2418/2518 06003MPS 5000 BR SCT013 OVC030 TX20/2506Z TN15/2422Z 
     TEMPO 2504/2510 SHRA SCT008 FEW020CB OVC030
       
ZBTJ 242100Z 24003MPS 8000 NSC 09/01 Q1010 NOSIG
TAF ZBTJ 241502Z 2418/2518 24006MPS 5000 HZ NSC TX22/2506Z TN07/2421Z 
     BECMG 2423/2424 32005MPS
       
ZBAA 242100Z VRB01MPS CAVOK 00/M07 Q1010 NOSIG
TAF ZBAA 241520Z 2418/2518 34004MPS CAVOK TX21/2507Z TN03/2421Z
       
ZSFZ 242100Z VRB01MPS 3000 -RA BR OVC017 11/10 Q1017 NOSIG
TAF ZSFZ 241508Z 2418/2518 35004MPS 6000 BKN030 TX15/2506Z TN09/2421Z 
     TEMPO 2418/2424 2900 -RA BKN009 OVC013
       
ZYCC 242100Z 25006MPS 5000 BR NSC 01/M04 Q1006 NOSIG
TAF ZYCC 241317Z 2418/2518 24004MPS 6000 FEW023 TX10/2506Z TNM02/21Z 
     BECMG 2506/2507 30008G14MPS
       
ZWWW 242100Z 22001MPS CAVOK 08/M01 Q1019 NOSIG
TAF ZWWW 241512Z 2418/2518 18003MPS CAVOK TX10/2509Z TN02/2423Z 
     BECMG 2503/2504 36004MPS 
     BECMG 2513/2514 18004MPS
       
ZSAM 242100Z 29003MPS 260V330 3000 +RA BR BKN009 OVC020 14/13 Q1017 BECMG TL2150 2000 -RA BKN012 FEW020CB BKN023
TAF AMD ZSAM 242047Z 2418/2518 05003MPS 5000 -RA BR BKN020 TX18/2506Z TN11/2421Z

     TEMPO 2421/2422 TSRA BKN007 FEW023CB OVC026
       
ZSSS 242100Z VRB01MPS 9999 -RA NSC 10/08 Q1017 NOSIG
TAF ZSSS 241510Z 2418/2518 16004MPS 6000 SCT020 TX16/2506Z TN06/2421Z
       
ZGHA 242100Z 20003MPS 0900 R18R/0600V0750N R18L/0500V0750U FG VV002 08/08 Q1019 NOSIG
TAF ZGHA 241429Z 2418/2518 02003MPS 1600 BR SCT050 TX17/2506Z TN06/2422Z 
     BECMG 2418/2419 0700 FG 
     BECMG 2501/2502 3500 BR
       
ZUCK 242100Z 36001MPS 5000 BR NSC 07/07 Q1020 NOSIG
TAF ZUCK 241504Z 2418/2518 03003MPS 5000 BR FEW040 TX18/2507Z TN07/2423Z 
     TEMPO 2422/2501 2000 BR
       
ZWSH 242100Z 30003MPS 2500 DU NSC 09/M11 Q1017 NOSIG
TAF ZWSH 241506Z 2418/2518 32004MPS 2000 DU FEW040 TX17/2509Z TN08/2500Z 
     BECMG 2504/2505 06004MPS 3100
       
ZGKL 242100Z 00000MPS 1200 R01/1400 BR FEW006 SCT026 OVC043 10/09 Q1019 NOSIG
TAF ZGKL 241515Z 2418/2518 05003MPS 1600 -RA BR FEW006 SCT020 OVC033 TX18/2508Z
TN08/2422Z 
     TEMPO 2418/2422 SHRA FEW006 SCT020 FEW033CB BKN033 
     BECMG 2500/2501 3500
       
ZSNB 242100Z VRB01MPS 4500 -RA BR BKN040 OVC050 09/09 Q1017 NOSIG
TAF ZSNB 241433Z 2418/2518 15004MPS 2500 -RA BR BKN030 TX15/2507Z TN09/2421Z 
     BECMG 2502/2503 5000 BR
       
ZSQD 242100Z 16003MPS 5000 BR NSC 07/03 Q1013 NOSIG
TAF ZSQD 241508Z 2418/2518 19004MPS 5000 BR NSC TX18/2506Z TN05/2421Z
       
ZSNJ 242100Z 20004MPS 5000 -RA BR NSC 10/08 Q1017 NOSIG
TAF ZSNJ 241502Z 2418/2518 17003MPS 3000 HZ BKN033 TX16/2507Z TN07/2421Z 
     TEMPO 2420/2424 2000 BR
       
ZSOF 242100Z 20002MPS CAVOK 09/04 Q1016 NOSIG
TAF ZSOF 241502Z 2418/2518 24003MPS 5000 HZ NSC TX20/2507Z TN07/2422Z
       
ZJHK 242100Z 01002MPS 340V060 6000 SCT005 BKN040 23/23 Q1013 NOSIG
TAF ZJHK 241505Z 2418/2518 07004MPS 5000 BR BKN006 BKN030 TX27/2506Z TN21/2421Z
       
ZJSY 242100Z 32002MPS 300V040 9999 FEW023 24/21 Q1013 NOSIG
TAF ZJSY 241500Z 2418/2518 09004MPS 9999 FEW020 TX31/2506Z TN24/2421Z
       
ZSPD 242100Z VRB01MPS 9999 -RA NSC 10/08 Q1018 NOSIG
TAF ZSPD 241524Z 2418/2518 16004MPS 6000 BKN016 TX16/2506Z TN06/2421Z
       
ZUUU 242100Z 00000MPS 6000 FEW050 10/08 Q1019 NOSIG
TAF ZUUU 241404Z 2418/2518 20003MPS 5000 BR SCT040 TX18/2507Z TN07/2422Z
       
ZYHB 242100Z 21003MPS CAVOK M03/M08 Q1002 NOSIG
TAF ZYHB 241530Z 2418/2518 22004MPS 6000 NSC TX08/2506Z TNM04/21Z 
     BECMG 2421/2423 28009G15MPS
       
ZYTX 242100Z 13002MPS CAVOK 01/M04 Q1008 NOSIG
TAF ZYTX 241319Z 2418/2518 22004MPS CAVOK TX16/2506Z TN00/2421Z 
     BECMG 2504/2505 31004G10MPS
       
ZHHH 242100Z 24003MPS 4000 BR NSC 08/07 Q1018 NOSIG
TAF ZHHH 241509Z 2418/2518 23003MPS 3000 BR NSC TX19/2507Z TN06/2422Z 
     BECMG 2420/2421 2000 BR 
     BECMG 2421/2422 1300 BR 
     BECMG 2501/2502 3000 BR
       
ZPPP 242100Z 00000MPS CAVOK 08/02 Q1020 NOSIG
TAF ZPPP 241312Z 2418/2518 04004MPS 9999 SCT030 TX23/2508Z TN06/2423Z 
     BECMG 2502/2503 22012G17MPS
       
ZBYN 242100Z 07002MPS CAVOK 01/M12 Q1014 NOSIG
TAF ZBYN 241503Z 2418/2518 09003MPS 6000 NSC TX19/2507Z TNM02/22Z
       
ZGNN 242100Z 35002MPS 9999 -RA SCT005 OVC023 12/12 Q1018 NOSIG
TAF ZGNN 241505Z 2418/2518 12003MPS 4000 BR FEW003 SCT008 OVC026 TX19/2507Z
TN11/2422Z 
     BECMG 2502/2504 FEW007 BKN010 BKN030 
     TEMPO 2420/2502 1200
       
ZLXY 242100Z 21002MPS CAVOK 04/M04 Q1016 NOSIG
TAF ZLXY 241514Z 2418/2518 06003MPS 6000 NSC TX23/2507Z TN05/2421Z
       
ZSHC 242100Z 18001MPS 5000 -RA BR BKN033 11/10 Q1017 NOSIG
TAF ZSHC 241502Z 2418/2518 10003MPS 3000 BR SCT026 TX18/2506Z TN08/2421Z 
     TEMPO 2418/2424 2500 -RA BR
       
ZHCC 242100Z VRB01MPS CAVOK 06/01 Q1013 NOSIG
TAF ZHCC 241515Z 2418/2518 27005MPS 6000 NSC TX20/2507Z TN07/2422Z
       
ZBSJ 242100Z 31003MPS 280V350 CAVOK 07/M10 Q1011 NOSIG
TAF ZBSJ 241401Z 2418/2518 33004MPS CAVOK TX23/2506Z TN03/2421Z
       
ZLLL 242100Z VRB01MPS CAVOK M04/M14 Q1017 NOSIG
TAF ZLLL 241500Z 2418/2518 35003MPS 6000 NSC TX15/2509Z TNM05/23Z
       
ZYTL 242100Z 24007MPS 6000 NSC 11/02 Q1010 NOSIG
TAF ZYTL 241502Z 2418/2518 25004G10MPS CAVOK TX14/2506Z TN06/2421Z